createdAt,value
2022-10-31T00:01:15.274Z,16.02
2022-10-31T00:03:41.931Z,15.63
2022-10-31T00:06:08.620Z,16.05
2022-10-31T00:08:35.912Z,16.33
2022-10-31T00:11:02.899Z,16.40
2022-10-31T00:13:29.635Z,16.35
2022-10-31T00:15:56.317Z,15.60
2022-10-31T00:18:22.976Z,15.68
2022-10-31T00:20:49.580Z,15.88
2022-10-31T00:23:16.233Z,15.02
2022-10-31T00:25:42.868Z,14.68
2022-10-31T00:28:12.758Z,15.40
2022-10-31T00:30:39.683Z,16.67
2022-10-31T00:33:06.359Z,16.58
2022-10-31T00:35:33.724Z,16.25
2022-10-31T00:38:00.625Z,19.67
2022-10-31T00:40:27.522Z,20.13
2022-10-31T00:42:54.354Z,23.75
2022-10-31T00:45:21.118Z,29.40
2022-10-31T00:47:47.835Z,33.65
2022-10-31T00:50:14.439Z,32.58
2022-10-31T00:52:41.003Z,33.38
2022-10-31T00:55:07.951Z,35.17
2022-10-31T00:57:34.523Z,37.58
2022-10-31T01:00:01.113Z,37.33
2022-10-31T01:02:27.920Z,38.53
2022-10-31T01:04:54.734Z,39.70
2022-10-31T01:07:21.478Z,33.65
2022-10-31T01:09:48.456Z,35.95
2022-10-31T01:12:15.107Z,36.88
2022-10-31T01:14:47.748Z,28.63
2022-10-31T01:17:15.073Z,29.73
2022-10-31T01:19:41.802Z,28.73
2022-10-31T01:22:08.468Z,27.85
2022-10-31T01:24:35.201Z,26.48
2022-10-31T01:27:01.895Z,30.08
2022-10-31T01:29:28.527Z,27.80
2022-10-31T01:31:55.126Z,27.17
2022-10-31T01:34:21.842Z,27.30
2022-10-31T01:36:52.203Z,27.55
2022-10-31T01:39:20.315Z,25.10
2022-10-31T01:41:50.231Z,22.95
2022-10-31T01:44:16.817Z,21.77
2022-10-31T01:46:54.816Z,21.58
2022-10-31T01:49:38.971Z,20.83
2022-10-31T01:52:11.711Z,21.10
2022-10-31T01:54:42.540Z,20.20
2022-10-31T01:57:12.832Z,20.00
2022-10-31T02:02:08.351Z,19.58
2022-10-31T02:04:35.832Z,19.60
2022-10-31T02:07:07.239Z,19.45
2022-10-31T02:09:35.584Z,18.67
2022-10-31T02:12:03.105Z,18.23
2022-10-31T02:14:31.718Z,17.73
2022-10-31T02:16:58.714Z,17.77
2022-10-31T02:19:50.999Z,17.67
2022-10-31T02:22:28.297Z,21.48
2022-10-31T02:25:26.025Z,18.40
2022-10-31T02:28:29.844Z,18.17
2022-10-31T02:31:20.724Z,15.45
2022-10-31T02:34:14.996Z,16.73
2022-10-31T02:36:49.639Z,15.15
2022-10-31T02:39:24.630Z,15.65
2022-10-31T02:42:12.485Z,16.77
2022-10-31T02:45:00.123Z,15.90
2022-10-31T02:47:35.917Z,15.65
2022-10-31T02:50:09.618Z,14.65
2022-10-31T02:52:37.135Z,14.57
2022-10-31T02:55:25.752Z,14.55
2022-10-31T02:57:58.995Z,15.25
2022-10-31T03:00:26.380Z,14.40
2022-10-31T03:03:34.412Z,14.25
2022-10-31T03:06:04.194Z,16.42
2022-10-31T03:08:52.968Z,18.70
2022-10-31T03:11:23.891Z,17.48
2022-10-31T03:14:04.045Z,17.90
2022-10-31T03:16:45.162Z,16.80
2022-10-31T03:19:15.642Z,17.13
2022-10-31T03:21:48.538Z,16.20
2022-10-31T03:24:16.231Z,15.95
2022-10-31T03:26:49.788Z,17.55
2022-10-31T03:29:19.868Z,15.63
2022-10-31T03:31:52.697Z,17.02
2022-10-31T03:34:20.770Z,16.55
2022-10-31T03:36:51.619Z,15.45
2022-10-31T03:39:22.169Z,14.30
2022-10-31T03:42:00.880Z,14.60
2022-10-31T03:44:30.351Z,14.73
2022-10-31T03:46:57.330Z,16.48
2022-10-31T03:49:24.248Z,14.10
2022-10-31T03:51:57.074Z,15.25
2022-10-31T03:55:09.094Z,14.52
2022-10-31T03:57:59.178Z,15.68
2022-10-31T04:03:06.310Z,13.43
2022-10-31T04:08:02.082Z,13.73
2022-10-31T04:10:33.023Z,13.90
2022-10-31T04:13:07.394Z,12.48
2022-10-31T04:15:37.223Z,14.63
2022-10-31T04:18:06.092Z,14.73
2022-10-31T04:20:38.263Z,14.35
2022-10-31T04:23:05.674Z,14.15
2022-10-31T04:25:32.271Z,14.93
2022-10-31T04:27:59.231Z,17.20
2022-10-31T04:30:26.148Z,16.35
2022-10-31T04:32:52.726Z,16.30
2022-10-31T04:35:19.316Z,15.45
2022-10-31T04:37:46.006Z,16.05
2022-10-31T04:40:12.765Z,14.63
2022-10-31T04:42:39.408Z,15.82
2022-10-31T04:45:06.538Z,16.42
2022-10-31T04:47:34.482Z,16.38
2022-10-31T04:50:01.685Z,14.07
2022-10-31T04:52:28.480Z,15.35
2022-10-31T04:54:55.138Z,14.07
2022-10-31T04:57:21.903Z,16.23
2022-10-31T04:59:48.525Z,14.38
2022-10-31T05:02:15.657Z,16.15
2022-10-31T05:04:42.342Z,15.65
2022-10-31T05:07:09.036Z,14.45
2022-10-31T05:09:35.728Z,14.48
2022-10-31T05:12:02.320Z,14.30
2022-10-31T05:14:29.006Z,13.77
2022-10-31T05:16:55.672Z,15.90
2022-10-31T05:19:22.256Z,15.57
2022-10-31T05:21:48.946Z,15.05
2022-10-31T05:24:15.556Z,15.10
2022-10-31T05:26:42.143Z,15.45
2022-10-31T05:29:08.765Z,15.32
2022-10-31T05:31:35.364Z,15.40
2022-10-31T05:34:02.035Z,14.68
2022-10-31T05:36:28.677Z,14.70
2022-10-31T05:38:55.298Z,15.50
2022-10-31T05:41:21.919Z,14.40
2022-10-31T05:43:48.599Z,14.57
2022-10-31T05:46:15.227Z,15.60
2022-10-31T05:48:41.856Z,15.00
2022-10-31T05:51:08.475Z,15.32
2022-10-31T05:53:35.095Z,14.60
2022-10-31T05:56:01.721Z,14.65
2022-10-31T05:58:28.317Z,15.85
2022-10-31T06:03:46.026Z,14.30
2022-10-31T06:06:12.761Z,15.63
2022-10-31T06:08:39.469Z,15.10
2022-10-31T06:11:06.186Z,14.40
2022-10-31T06:13:32.787Z,15.52
2022-10-31T06:15:59.370Z,14.98
2022-10-31T06:21:18.998Z,15.57
2022-10-31T06:23:46.087Z,13.93
2022-10-31T06:26:13.290Z,13.95
2022-10-31T06:28:39.892Z,15.85
2022-10-31T06:31:06.712Z,15.27
2022-10-31T06:33:34.268Z,16.08
2022-10-31T06:36:01.331Z,14.93
2022-10-31T06:38:28.830Z,17.10
2022-10-31T06:40:56.000Z,14.88
2022-10-31T06:43:23.167Z,15.90
2022-10-31T06:45:49.820Z,16.25
2022-10-31T06:48:18.176Z,15.75
2022-10-31T06:50:45.381Z,17.52
2022-10-31T06:53:12.383Z,17.52
2022-10-31T06:55:39.441Z,17.02
2022-10-31T06:58:06.578Z,16.65
2022-10-31T07:00:33.966Z,16.48
2022-10-31T07:03:06.280Z,16.48
2022-10-31T07:05:33.158Z,17.70
2022-10-31T07:08:02.123Z,16.63
2022-10-31T07:10:32.165Z,17.25
2022-10-31T07:13:05.276Z,18.13
2022-10-31T07:15:35.624Z,17.63
2022-10-31T07:18:03.722Z,18.70
2022-10-31T07:20:31.346Z,18.35
2022-10-31T07:22:58.349Z,19.10
2022-10-31T07:25:25.147Z,19.05
2022-10-31T07:27:51.988Z,19.02
2022-10-31T07:30:19.803Z,19.65
2022-10-31T07:32:51.294Z,19.58
2022-10-31T07:35:20.263Z,20.92
2022-10-31T07:37:47.404Z,23.17
2022-10-31T07:40:14.631Z,23.77
2022-10-31T07:42:43.250Z,25.13
2022-10-31T07:45:12.746Z,25.95
2022-10-31T07:47:49.697Z,29.95
2022-10-31T07:50:22.364Z,25.73
2022-10-31T07:52:49.618Z,27.33
2022-10-31T07:55:16.365Z,29.50
2022-10-31T07:57:43.275Z,34.10
2022-10-31T08:00:11.285Z,33.78
2022-10-31T08:02:38.110Z,37.42
2022-10-31T08:05:05.033Z,33.33
2022-10-31T08:10:08.928Z,39.47
2022-10-31T08:12:35.571Z,41.05
2022-10-31T08:15:03.010Z,39.83
2022-10-31T08:17:30.575Z,38.60
2022-10-31T08:19:57.395Z,37.78
2022-10-31T08:22:24.123Z,37.05
2022-10-31T08:24:50.727Z,33.22
2022-10-31T08:27:17.564Z,35.35
2022-10-31T08:29:44.402Z,34.55
2022-10-31T08:32:10.995Z,31.80
2022-10-31T08:37:27.959Z,29.50
2022-10-31T08:39:54.695Z,28.55
2022-10-31T08:42:21.299Z,27.40
2022-10-31T08:44:48.009Z,28.75
2022-10-31T08:47:14.707Z,29.25
2022-10-31T08:49:41.328Z,27.10
2022-10-31T08:52:12.045Z,26.42
2022-10-31T08:54:41.064Z,27.92
2022-10-31T08:57:07.706Z,26.10
2022-10-31T08:59:34.491Z,27.25
2022-10-31T09:02:01.183Z,27.35
2022-10-31T09:04:27.861Z,25.70
2022-10-31T09:07:20.288Z,26.88
2022-10-31T09:09:41.249Z,26.02
2022-10-31T09:12:08.110Z,27.67
2022-10-31T09:14:34.779Z,27.13
2022-10-31T09:17:01.420Z,25.83
2022-10-31T09:19:28.207Z,26.15
2022-10-31T09:21:55.718Z,26.75
2022-10-31T09:24:22.727Z,25.80
2022-10-31T09:26:49.314Z,26.60
2022-10-31T09:29:15.991Z,26.63
2022-10-31T09:31:45.080Z,26.42
2022-10-31T09:34:11.927Z,26.67
2022-10-31T09:36:41.333Z,26.30
2022-10-31T09:39:08.687Z,27.33
2022-10-31T09:42:04.174Z,26.73
2022-10-31T09:44:44.701Z,26.40
2022-10-31T09:47:37.447Z,24.55
2022-10-31T09:50:30.692Z,26.98
2022-10-31T09:53:11.030Z,25.92
2022-10-31T09:58:21.138Z,26.33
2022-10-31T10:00:49.102Z,28.25
2022-10-31T10:03:47.790Z,26.67
2022-10-31T10:06:19.824Z,26.60
2022-10-31T10:08:46.654Z,26.10
2022-10-31T10:11:22.418Z,26.05
2022-10-31T10:14:12.247Z,26.45
2022-10-31T10:17:17.987Z,27.55
2022-10-31T10:20:24.288Z,27.15
2022-10-31T10:22:51.475Z,27.95
2022-10-31T10:25:26.724Z,26.92
2022-10-31T10:28:26.168Z,25.67
2022-10-31T10:31:10.328Z,25.70
2022-10-31T10:33:42.851Z,25.88
2022-10-31T10:36:19.387Z,25.10
2022-10-31T10:38:59.675Z,26.08
2022-10-31T10:44:01.430Z,22.98
2022-10-31T10:46:59.931Z,25.05
2022-10-31T10:49:39.667Z,25.75
2022-10-31T10:52:27.047Z,23.75
2022-10-31T10:55:17.432Z,23.77
2022-10-31T10:58:04.524Z,25.98
2022-10-31T11:00:35.314Z,23.92
2022-10-31T11:03:02.322Z,24.05
2022-10-31T11:05:40.027Z,25.23
2022-10-31T11:08:07.893Z,24.23
2022-10-31T11:10:35.070Z,22.25
2022-10-31T11:13:14.060Z,20.33
2022-10-31T11:16:07.119Z,22.48
2022-10-31T11:18:42.189Z,23.02
2022-10-31T11:21:26.994Z,19.95
2022-10-31T11:24:11.900Z,19.90
2022-10-31T11:26:40.497Z,19.50
2022-10-31T11:29:15.866Z,19.88
2022-10-31T11:31:43.953Z,20.58
2022-10-31T11:34:20.934Z,22.13
2022-10-31T11:36:48.843Z,19.50
2022-10-31T11:39:20.539Z,20.45
2022-10-31T11:41:48.276Z,21.92
2022-10-31T11:44:21.272Z,21.88
2022-10-31T11:46:59.115Z,21.75
2022-10-31T11:49:35.152Z,20.50
2022-10-31T11:52:14.031Z,19.98
2022-10-31T11:54:57.006Z,20.92
2022-10-31T11:57:28.399Z,20.20
2022-10-31T11:59:57.163Z,19.85
2022-10-31T12:02:24.811Z,20.67
2022-10-31T12:05:01.577Z,19.65
2022-10-31T12:07:28.411Z,17.67
2022-10-31T12:09:55.241Z,18.02
2022-10-31T12:12:54.994Z,17.50
2022-10-31T12:15:34.479Z,18.67
2022-10-31T12:18:03.940Z,19.27
2022-10-31T12:21:04.590Z,19.40
2022-10-31T12:23:55.567Z,16.52
2022-10-31T12:26:40.990Z,18.13
2022-10-31T12:29:44.572Z,18.98
2022-10-31T12:32:39.850Z,18.77
2022-10-31T12:35:22.783Z,18.15
2022-10-31T12:38:21.527Z,16.90
2022-10-31T12:41:18.727Z,17.35
2022-10-31T12:44:01.055Z,17.77
2022-10-31T12:46:56.379Z,15.57
2022-10-31T12:49:52.218Z,17.77
2022-10-31T12:52:45.900Z,16.92
2022-10-31T12:55:31.957Z,16.42
2022-10-31T12:58:04.476Z,17.65
2022-10-31T13:00:37.303Z,16.40
2022-10-31T13:03:27.630Z,16.63
2022-10-31T13:08:41.590Z,18.45
2022-10-31T13:11:28.613Z,16.98
2022-10-31T13:14:15.267Z,17.80
2022-10-31T13:16:47.021Z,17.33
2022-10-31T13:19:31.291Z,17.40
2022-10-31T13:22:25.832Z,17.40
2022-10-31T13:25:10.005Z,18.73
2022-10-31T13:28:01.820Z,18.85
2022-10-31T13:30:33.031Z,18.42
2022-10-31T13:33:03.963Z,18.88
2022-10-31T13:35:37.124Z,17.40
2022-10-31T13:38:25.706Z,18.58
2022-10-31T13:41:15.271Z,19.40
2022-10-31T13:44:14.212Z,18.13
2022-10-31T13:49:40.763Z,18.35
2022-10-31T13:52:10.213Z,20.48
2022-10-31T13:54:56.753Z,19.40
2022-10-31T13:57:39.687Z,21.20
2022-10-31T14:00:21.933Z,21.30
2022-10-31T14:02:55.424Z,20.63
2022-10-31T14:05:31.948Z,19.45
2022-10-31T14:08:01.508Z,20.65
2022-10-31T14:10:39.001Z,20.15
2022-10-31T14:13:42.331Z,20.10
2022-10-31T14:16:31.257Z,20.70
2022-10-31T14:19:13.643Z,21.23
2022-10-31T14:21:43.703Z,18.38
2022-10-31T14:24:25.569Z,17.95
2022-10-31T14:26:58.103Z,17.48
2022-10-31T14:29:28.381Z,16.23
2022-10-31T14:31:56.643Z,18.38
2022-10-31T14:34:38.594Z,15.57
2022-10-31T14:37:33.320Z,15.63
2022-10-31T14:40:11.781Z,17.95
2022-10-31T14:43:17.341Z,16.40
2022-10-31T14:46:12.980Z,15.43
2022-10-31T14:48:52.195Z,16.88
2022-10-31T14:51:22.374Z,16.38
2022-10-31T14:56:27.846Z,15.70
2022-10-31T14:59:01.703Z,15.27
2022-10-31T15:01:37.667Z,17.55
2022-10-31T15:04:23.778Z,16.08
2022-10-31T15:06:58.900Z,15.98
2022-10-31T15:09:33.727Z,15.95
2022-10-31T15:12:21.429Z,17.55
2022-10-31T15:14:47.992Z,16.83
2022-10-31T15:17:15.208Z,16.30
2022-10-31T15:19:43.610Z,16.95
2022-10-31T15:22:17.493Z,17.40
2022-10-31T15:24:45.090Z,15.50
2022-10-31T15:27:17.298Z,17.50
2022-10-31T15:29:55.418Z,20.58
2022-10-31T15:32:29.168Z,21.20
2022-10-31T15:34:57.799Z,18.65
2022-10-31T15:37:26.490Z,20.05
2022-10-31T15:39:53.887Z,24.65
2022-10-31T15:42:30.698Z,23.58
2022-10-31T15:45:06.582Z,22.00
2022-10-31T15:47:34.583Z,21.65
2022-10-31T15:50:02.869Z,22.80
2022-10-31T15:52:45.277Z,23.17
2022-10-31T15:55:26.435Z,21.70
2022-10-31T15:57:59.742Z,21.20
2022-10-31T16:00:31.988Z,20.65
2022-10-31T16:03:07.392Z,18.90
2022-10-31T16:05:52.812Z,19.13
2022-10-31T16:08:31.405Z,18.10
2022-10-31T16:11:15.024Z,18.35
2022-10-31T16:14:16.095Z,18.77
2022-10-31T16:16:47.314Z,16.63
2022-10-31T16:19:20.284Z,17.75
2022-10-31T16:21:50.763Z,18.48
2022-10-31T16:24:38.410Z,18.60
2022-10-31T16:27:07.957Z,17.15
2022-10-31T16:29:43.900Z,18.50
2022-10-31T16:32:34.438Z,17.58
2022-10-31T16:35:22.576Z,16.67
2022-10-31T16:37:49.155Z,18.25
2022-10-31T16:40:18.689Z,17.60
2022-10-31T16:42:46.633Z,15.88
2022-10-31T16:45:23.633Z,17.52
2022-10-31T16:47:51.340Z,18.92
2022-10-31T16:50:26.562Z,15.30
2022-10-31T16:53:12.844Z,19.08
2022-10-31T16:55:45.571Z,17.45
2022-10-31T16:58:29.191Z,18.90
2022-10-31T17:00:56.357Z,18.10
2022-10-31T17:03:23.624Z,19.00
2022-10-31T17:05:50.492Z,17.02
2022-10-31T17:08:17.910Z,18.30
2022-10-31T17:10:46.029Z,18.42
2022-10-31T17:13:21.196Z,17.42
2022-10-31T17:15:55.220Z,20.35
2022-10-31T17:18:27.083Z,17.90
2022-10-31T17:21:03.153Z,20.15
2022-10-31T17:23:30.092Z,18.42
2022-10-31T17:25:57.188Z,19.25
2022-10-31T17:28:25.047Z,17.65
2022-10-31T17:30:51.881Z,19.35
2022-10-31T17:33:18.466Z,18.52
2022-10-31T17:35:45.555Z,18.60
2022-10-31T17:38:12.952Z,18.90
2022-10-31T17:40:44.291Z,18.33
2022-10-31T17:43:12.139Z,18.42
2022-10-31T17:45:40.775Z,21.15
2022-10-31T17:48:09.778Z,22.77
2022-10-31T17:50:36.482Z,21.75
2022-10-31T17:53:03.483Z,21.95
2022-10-31T17:55:36.079Z,29.55
2022-10-31T17:58:05.033Z,27.52
2022-10-31T18:00:31.829Z,29.08
2022-10-31T18:02:58.931Z,33.38
2022-10-31T18:05:25.874Z,32.70
2022-10-31T18:07:52.495Z,33.08
2022-10-31T18:10:19.172Z,33.78
2022-10-31T18:12:45.855Z,32.80
2022-10-31T18:15:12.543Z,31.70
2022-10-31T18:17:42.034Z,30.55
2022-10-31T18:20:09.954Z,29.73
2022-10-31T18:22:36.987Z,28.90
2022-10-31T18:25:04.682Z,28.23
2022-10-31T18:27:31.654Z,29.45
2022-10-31T18:29:58.386Z,27.80
2022-10-31T18:32:25.092Z,26.00
2022-10-31T18:34:51.796Z,24.92
2022-10-31T18:37:18.400Z,26.30
2022-10-31T18:39:45.974Z,25.90
2022-10-31T18:42:12.653Z,25.30
2022-10-31T18:44:39.292Z,26.85
2022-10-31T18:47:06.140Z,25.17
2022-10-31T18:49:33.544Z,27.33
2022-10-31T18:52:00.639Z,27.20
2022-10-31T18:54:27.360Z,27.77
2022-10-31T18:56:54.544Z,27.77
2022-10-31T18:59:21.326Z,29.83
2022-10-31T19:01:48.074Z,28.63
2022-10-31T19:04:14.776Z,31.55
2022-10-31T19:06:41.472Z,25.63
2022-10-31T19:09:09.729Z,29.48
2022-10-31T19:11:37.851Z,26.27
2022-10-31T19:14:05.489Z,26.25
2022-10-31T19:16:34.424Z,28.50
2022-10-31T19:19:01.590Z,29.40
2022-10-31T19:21:30.397Z,27.98
2022-10-31T19:23:58.186Z,26.85
2022-10-31T19:26:26.187Z,26.70
2022-10-31T19:28:53.445Z,26.00
2022-10-31T19:31:20.194Z,25.63
2022-10-31T19:33:47.053Z,25.33
2022-10-31T19:36:15.877Z,24.67
2022-10-31T19:38:45.036Z,25.15
2022-10-31T19:41:26.430Z,24.13
2022-10-31T19:43:53.944Z,23.90
2022-10-31T19:46:33.834Z,24.42
2022-10-31T19:49:10.315Z,26.88
2022-10-31T19:51:37.091Z,22.05
2022-10-31T19:54:04.091Z,24.38
2022-10-31T19:56:30.740Z,24.60
2022-10-31T19:58:59.742Z,26.05
2022-10-31T20:01:26.418Z,25.77
2022-10-31T20:03:53.057Z,26.65
2022-10-31T20:06:29.310Z,26.02
2022-10-31T20:08:56.792Z,24.98
2022-10-31T20:11:27.976Z,23.83
2022-10-31T20:13:56.097Z,26.80
2022-10-31T20:16:23.251Z,23.65
2022-10-31T20:18:49.989Z,26.33
2022-10-31T20:21:19.904Z,26.83
2022-10-31T20:23:47.667Z,25.60
2022-10-31T20:26:19.204Z,26.27
2022-10-31T20:28:46.606Z,26.92
2022-10-31T20:31:18.192Z,26.27
2022-10-31T20:33:44.844Z,26.00
2022-10-31T20:36:11.694Z,23.15
2022-10-31T20:38:39.977Z,23.63
2022-10-31T20:41:09.554Z,26.55
2022-10-31T20:43:36.956Z,24.02
2022-10-31T20:46:06.520Z,24.45
2022-10-31T20:48:33.904Z,25.90
2022-10-31T20:51:02.779Z,23.25
2022-10-31T20:53:29.503Z,25.98
2022-10-31T20:56:07.589Z,26.63
2022-10-31T20:58:35.480Z,23.10
2022-10-31T21:01:02.320Z,23.08
2022-10-31T21:03:29.308Z,24.08
2022-10-31T21:06:00.783Z,25.45
2022-10-31T21:08:28.842Z,25.67
2022-10-31T21:10:55.935Z,25.73
2022-10-31T21:13:23.128Z,23.65
2022-10-31T21:16:03.295Z,24.38
2022-10-31T21:18:30.210Z,26.50
2022-10-31T21:20:56.870Z,25.83
2022-10-31T21:23:23.847Z,24.02
2022-10-31T21:25:50.595Z,26.00
2022-10-31T21:28:17.898Z,31.70
2022-10-31T21:30:48.360Z,28.67
2022-10-31T21:33:15.448Z,28.73
2022-10-31T21:35:50.726Z,30.52
2022-10-31T21:38:18.093Z,37.20
2022-10-31T21:40:44.956Z,34.67
2022-10-31T21:43:11.875Z,41.72
2022-10-31T21:45:38.511Z,37.80
2022-10-31T21:48:05.353Z,47.13
2022-10-31T21:50:31.959Z,51.25
2022-10-31T21:53:18.540Z,43.53
2022-10-31T21:55:45.164Z,45.05
2022-10-31T21:58:11.826Z,52.42
2022-10-31T22:00:38.484Z,47.85
2022-10-31T22:03:05.064Z,43.03
2022-10-31T22:05:34.258Z,44.20
2022-10-31T22:08:01.259Z,47.47
2022-10-31T22:10:28.056Z,55.85
2022-10-31T22:12:54.647Z,54.05
2022-10-31T22:15:23.415Z,64.40
2022-10-31T22:17:50.303Z,59.35
2022-10-31T22:20:17.225Z,58.08
2022-10-31T22:22:43.868Z,60.83
2022-10-31T22:25:10.456Z,62.20
2022-10-31T22:27:38.647Z,62.30
2022-10-31T22:30:06.244Z,56.85
2022-10-31T22:32:32.846Z,61.45
2022-10-31T22:34:59.652Z,63.45
2022-10-31T22:37:26.318Z,58.40
2022-10-31T22:39:52.972Z,61.45
2022-10-31T22:42:19.674Z,64.32
2022-10-31T22:44:46.244Z,59.03
2022-10-31T22:47:12.868Z,59.95
2022-10-31T22:49:39.582Z,68.45
2022-10-31T22:52:06.343Z,72.90
2022-10-31T22:54:33.071Z,73.80
2022-10-31T22:56:59.683Z,59.63
2022-10-31T22:59:26.384Z,60.72
2022-10-31T23:01:54.435Z,59.42
2022-10-31T23:04:21.267Z,63.30
2022-10-31T23:06:49.235Z,55.13
2022-10-31T23:09:17.050Z,62.30
2022-10-31T23:11:44.507Z,65.13
2022-10-31T23:14:16.329Z,60.60
2022-10-31T23:16:51.970Z,62.58
2022-10-31T23:19:27.597Z,55.15
2022-10-31T23:21:59.269Z,57.58
2022-10-31T23:24:41.859Z,56.15
2022-10-31T23:27:13.501Z,60.03
2022-10-31T23:29:52.331Z,55.90
2022-10-31T23:32:31.548Z,58.10
2022-10-31T23:35:01.382Z,67.80
2022-10-31T23:37:30.320Z,56.63
2022-10-31T23:39:57.360Z,57.47
2022-10-31T23:42:24.833Z,58.05
2022-10-31T23:44:51.754Z,60.08
2022-10-31T23:47:19.105Z,57.17
2022-10-31T23:49:46.000Z,61.58
2022-10-31T23:52:13.384Z,59.15
2022-10-31T23:54:40.491Z,55.83
2022-10-31T23:57:07.506Z,55.85
2022-10-31T23:59:34.250Z,59.00
